Vronskiy — C4AY2 — position and weather

sailwx.info

Track history (hours):
 
Tides and Currents Weather Stations Pressure Air Temp Water Temp Dewpoint Dewpoint Depression Visibility Wind Speed Wind Dir Waves Ship Positions

Vronskiy

Last reported at 2014-Nov-23 16:33 UTC. Time now 2014-Nov-23 17:25 UTC.
Position N 36°00' W 005°27'.

Length 131 m; draft 5.2 m.

Type: Passenger vessel. MMSI: 210030000.

Date/timePositionNaut miles runAvg speedWind from/ knotsBaromVisibWave heightAir tempDewpointWater temp
2014-Nov-23 16:33N 36°00' W 005°27'1 0.1
2014-Nov-23 08:33N 35°60' W 005°27'2 0.3
2014-Nov-23 02:19N 35°58' W 005°28'4 0.9
2014-Nov-22 21:33N 36°01' W 005°25'3 0.9
2014-Nov-22 18:26N 36°03' W 005°23'9 3.0
2014-Nov-22 15:29N 35°56' W 005°30'5 1.5
2014-Nov-22 12:08N 35°60' W 005°25'2 0.5
2014-Nov-22 08:34N 35°59' W 005°28'9 4.2
2014-Nov-22 06:30N 36°08' W 005°26'0 0.0
2014-Nov-22 03:24N 36°08' W 005°26'0 0.0
2014-Nov-22 02:30N 36°08' W 005°26'7 5.4
2014-Nov-22 01:13N 36°01' W 005°24'1 0.3
2014-Nov-21 21:33N 36°02' W 005°25'6 3.0
2014-Nov-21 19:29N 36°08' W 005°26'9 9.3
2014-Nov-21 18:32N 35°59' W 005°25'7 3.1
2014-Nov-21 16:14N 35°54' W 005°31'710.7
2014-Nov-21 15:33N 36°00' W 005°27'8 3.6
2014-Nov-21 13:20N 36°08' W 005°26'6 7.3
2014-Nov-21 12:30N 36°03' W 005°22'9 2.4
2014-Nov-21 08:32N 35°56' W 005°30'1211.3
2014-Nov-21 07:26N 36°08' W 005°26'0 0.4
2014-Nov-21 06:32N 36°08' W 005°26'0 0.0
2014-Nov-21 05:26N 36°08' W 005°26'0 0.0
2014-Nov-21 02:12N 36°08' W 005°26'6 6.9
2014-Nov-21 01:21N 36°03' W 005°22'9 3.0
2014-Nov-20 22:20N 35°56' W 005°30'1114.8
2014-Nov-20 21:33N 36°07' W 005°24'3 1.2
2014-Nov-20 19:13N 36°05' W 005°22'8 2.1
2014-Nov-20 15:34N 35°59' W 005°29'9 3.0
2014-Nov-20 12:27N 36°08' W 005°26'910.0
2014-Nov-20 11:33N 35°59' W 005°25'4 1.4
2014-Nov-20 08:33N 35°57' W 005°29'6 1.0
2014-Nov-20 02:08N 36°01' W 005°24'7 1.9
2014-Nov-19 22:28N 35°56' W 005°30'3 0.4
2014-Nov-19 15:33N 35°59' W 005°28'10 3.4
2014-Nov-19 12:32N 36°09' W 005°26'13 3.3
2014-Nov-19 08:33N 35°56' W 005°30'4 0.5
2014-Nov-19 00:06N 35°58' W 005°26'4 1.9
2014-Nov-18 22:05N 35°56' W 005°30'814.5
2014-Nov-18 21:33N 36°03' W 005°25'5 1.7
2014-Nov-18 18:29N 36°08' W 005°26'1010.3
2014-Nov-18 17:33N 35°58' W 005°26'4 1.8
2014-Nov-18 15:23N 35°56' W 005°30'1213.9
2014-Nov-18 14:33N 36°07' W 005°24'11 1.8
2014-Nov-18 08:33N 35°57' W 005°30'12 8.9
2014-Nov-18 07:15N 36°08' W 005°26'9 1.3
2014-Nov-18 00:33N 35°59' W 005°25'4 2.1
2014-Nov-17 22:34N 35°57' W 005°30'12 3.8
2014-Nov-17 19:32N 36°08' W 005°26'1211.8
2014-Nov-17 18:33N 35°57' W 005°27'2 0.9
2014-Nov-17 16:05N 35°56' W 005°30'713.1
2014-Nov-17 15:33N 36°02' W 005°25'6 1.5
2014-Nov-17 11:28N 35°56' W 005°28'1 0.4
2014-Nov-17 08:34N 35°56' W 005°30'12 2.0
2014-Nov-17 02:29N 36°08' W 005°26'9 8.4
2014-Nov-17 01:27N 35°59' W 005°25'5 2.3
2014-Nov-16 23:10N 35°56' W 005°30'1114.4
2014-Nov-16 22:25N 36°06' W 005°24'4 1.5
2014-Nov-16 20:03N 36°09' W 005°26'913.2
2014-Nov-16 19:24N 36°00' W 005°25'2 0.7
2014-Nov-16 16:33N 35°60' W 005°27'4 0.5
2014-Nov-16 09:04N 35°57' W 005°30'714.0
2014-Nov-16 08:33N 36°02' W 005°24'5 0.5
2014-Nov-15 22:33N 35°59' W 005°28'9 4.1
2014-Nov-15 20:17N 36°08' W 005°26'8 9.5
2014-Nov-15 19:25N 35°60' W 005°25'5 1.8
2014-Nov-15 16:28N 35°56' W 005°30'1010.2
2014-Nov-15 15:32N 36°04' W 005°24'5 2.0
2014-Nov-15 13:07N 36°09' W 005°26'912.1
2014-Nov-15 12:24N 36°00' W 005°25'4 1.0
2014-Nov-15 08:33N 35°59' W 005°29'10 1.5
2014-Nov-15 02:09N 36°08' W 005°26'8 7.7
2014-Nov-15 01:05N 35°60' W 005°25'2 0.9
2014-Nov-14 22:32N 35°59' W 005°28'3 0.5
2014-Nov-14 16:13N 35°57' W 005°30'913.1
2014-Nov-14 15:33N 36°04' W 005°24'5 1.3
2014-Nov-14 12:08N 35°59' W 005°25'8 2.7
2014-Nov-14 09:13N 35°54' W 005°31'811.7
2014-Nov-14 08:33N 36°00' W 005°26'1 0.2
2014-Nov-14 00:10N 36°00' W 005°24'6 2.1
2014-Nov-13 21:33N 35°57' W 005°30'6 1.7
2014-Nov-13 18:10N 36°01' W 005°24'  
Track history (hours):
 
Tides and Currents Weather Stations Pressure Air Temp Water Temp Dewpoint Dewpoint Depression Visibility Wind Speed Wind Dir Waves Ship Positions

Vronskiy

Last reported at 2014-Nov-23 16:33 UTC. Time now 2014-Nov-23 17:25 UTC.
Position N 36°00' W 005°27'.

Length 131 m; draft 5.2 m.

Type: Passenger vessel. MMSI: 210030000.

Date/timePositionNaut miles runAvg speedWind from/ knotsBaromVisibWave heightAir tempDewpointWater temp
2014-Nov-23 16:33N 36°00' W 005°27'1 0.1
2014-Nov-23 08:33N 35°60' W 005°27'2 0.3
2014-Nov-23 02:19N 35°58' W 005°28'4 0.9
2014-Nov-22 21:33N 36°01' W 005°25'3 0.9
2014-Nov-22 18:26N 36°03' W 005°23'9 3.0
2014-Nov-22 15:29N 35°56' W 005°30'5 1.5
2014-Nov-22 12:08N 35°60' W 005°25'2 0.5
2014-Nov-22 08:34N 35°59' W 005°28'9 4.2
2014-Nov-22 06:30N 36°08' W 005°26'0 0.0
2014-Nov-22 03:24N 36°08' W 005°26'0 0.0
2014-Nov-22 02:30N 36°08' W 005°26'7 5.4
2014-Nov-22 01:13N 36°01' W 005°24'1 0.3
2014-Nov-21 21:33N 36°02' W 005°25'6 3.0
2014-Nov-21 19:29N 36°08' W 005°26'9 9.3
2014-Nov-21 18:32N 35°59' W 005°25'7 3.1
2014-Nov-21 16:14N 35°54' W 005°31'710.7
2014-Nov-21 15:33N 36°00' W 005°27'8 3.6
2014-Nov-21 13:20N 36°08' W 005°26'6 7.3
2014-Nov-21 12:30N 36°03' W 005°22'9 2.4
2014-Nov-21 08:32N 35°56' W 005°30'1211.3
2014-Nov-21 07:26N 36°08' W 005°26'0 0.4
2014-Nov-21 06:32N 36°08' W 005°26'0 0.0
2014-Nov-21 05:26N 36°08' W 005°26'0 0.0
2014-Nov-21 02:12N 36°08' W 005°26'6 6.9
2014-Nov-21 01:21N 36°03' W 005°22'9 3.0
2014-Nov-20 22:20N 35°56' W 005°30'1114.8
2014-Nov-20 21:33N 36°07' W 005°24'3 1.2
2014-Nov-20 19:13N 36°05' W 005°22'8 2.1
2014-Nov-20 15:34N 35°59' W 005°29'9 3.0
2014-Nov-20 12:27N 36°08' W 005°26'910.0
2014-Nov-20 11:33N 35°59' W 005°25'4 1.4
2014-Nov-20 08:33N 35°57' W 005°29'6 1.0
2014-Nov-20 02:08N 36°01' W 005°24'7 1.9
2014-Nov-19 22:28N 35°56' W 005°30'3 0.4
2014-Nov-19 15:33N 35°59' W 005°28'10 3.4
2014-Nov-19 12:32N 36°09' W 005°26'13 3.3
2014-Nov-19 08:33N 35°56' W 005°30'4 0.5
2014-Nov-19 00:06N 35°58' W 005°26'4 1.9
2014-Nov-18 22:05N 35°56' W 005°30'814.5
2014-Nov-18 21:33N 36°03' W 005°25'5 1.7
2014-Nov-18 18:29N 36°08' W 005°26'1010.3
2014-Nov-18 17:33N 35°58' W 005°26'4 1.8
2014-Nov-18 15:23N 35°56' W 005°30'1213.9
2014-Nov-18 14:33N 36°07' W 005°24'11 1.8
2014-Nov-18 08:33N 35°57' W 005°30'12 8.9
2014-Nov-18 07:15N 36°08' W 005°26'9 1.3
2014-Nov-18 00:33N 35°59' W 005°25'4 2.1
2014-Nov-17 22:34N 35°57' W 005°30'12 3.8
2014-Nov-17 19:32N 36°08' W 005°26'1211.8
2014-Nov-17 18:33N 35°57' W 005°27'2 0.9
2014-Nov-17 16:05N 35°56' W 005°30'713.1
2014-Nov-17 15:33N 36°02' W 005°25'6 1.5
2014-Nov-17 11:28N 35°56' W 005°28'1 0.4
2014-Nov-17 08:34N 35°56' W 005°30'12 2.0
2014-Nov-17 02:29N 36°08' W 005°26'9 8.4
2014-Nov-17 01:27N 35°59' W 005°25'5 2.3
2014-Nov-16 23:10N 35°56' W 005°30'1114.4
2014-Nov-16 22:25N 36°06' W 005°24'4 1.5
2014-Nov-16 20:03N 36°09' W 005°26'913.2
2014-Nov-16 19:24N 36°00' W 005°25'2 0.7
2014-Nov-16 16:33N 35°60' W 005°27'4 0.5
2014-Nov-16 09:04N 35°57' W 005°30'714.0
2014-Nov-16 08:33N 36°02' W 005°24'5 0.5
2014-Nov-15 22:33N 35°59' W 005°28'9 4.1
2014-Nov-15 20:17N 36°08' W 005°26'8 9.5
2014-Nov-15 19:25N 35°60' W 005°25'5 1.8
2014-Nov-15 16:28N 35°56' W 005°30'1010.2
2014-Nov-15 15:32N 36°04' W 005°24'5 2.0
2014-Nov-15 13:07N 36°09' W 005°26'912.1
2014-Nov-15 12:24N 36°00' W 005°25'4 1.0
2014-Nov-15 08:33N 35°59' W 005°29'10 1.5
2014-Nov-15 02:09N 36°08' W 005°26'8 7.7
2014-Nov-15 01:05N 35°60' W 005°25'2 0.9
2014-Nov-14 22:32N 35°59' W 005°28'3 0.5
2014-Nov-14 16:13N 35°57' W 005°30'913.1
2014-Nov-14 15:33N 36°04' W 005°24'5 1.3
2014-Nov-14 12:08N 35°59' W 005°25'8 2.7
2014-Nov-14 09:13N 35°54' W 005°31'811.7
2014-Nov-14 08:33N 36°00' W 005°26'1 0.2
2014-Nov-14 00:10N 36°00' W 005°24'6 2.1
2014-Nov-13 21:33N 35°57' W 005°30'6 1.7
2014-Nov-13 18:10N 36°01' W 005°24'  

Dump ship's entire track history